createdAt,value
2022-12-24T00:02:06.821Z,0.70
2022-12-24T00:07:10.206Z,1.30
2022-12-24T00:12:13.559Z,0.98
2022-12-24T00:17:18.237Z,0.70
2022-12-24T00:22:21.601Z,0.60
2022-12-24T00:27:24.814Z,0.80
2022-12-24T00:32:29.454Z,0.77
2022-12-24T00:37:32.708Z,0.30
2022-12-24T00:42:35.938Z,0.40
2022-12-24T00:47:40.764Z,0.30
2022-12-24T00:52:44.023Z,0.50
2022-12-24T00:57:47.247Z,0.30
2022-12-24T01:02:52.181Z,0.60
2022-12-24T01:07:55.577Z,0.60
2022-12-24T01:12:58.802Z,0.70
2022-12-24T01:18:03.870Z,0.80
2022-12-24T01:23:07.394Z,0.60
2022-12-24T01:28:10.679Z,0.77
2022-12-24T01:33:15.371Z,0.80
2022-12-24T01:38:18.603Z,0.60
2022-12-24T01:43:28.428Z,0.67
2022-12-24T01:48:40.266Z,0.90
2022-12-24T01:53:46.469Z,0.80
2022-12-24T01:58:54.862Z,1.07
2022-12-24T02:03:59.899Z,0.93
2022-12-24T02:09:03.660Z,0.70
2022-12-24T02:14:06.972Z,0.52
2022-12-24T02:19:50.096Z,0.70
2022-12-24T02:25:24.622Z,0.70
2022-12-24T02:30:34.416Z,0.70
2022-12-24T02:35:45.576Z,0.60
2022-12-24T02:40:53.373Z,0.60
2022-12-24T02:46:01.135Z,0.57
2022-12-24T02:51:08.078Z,0.40
2022-12-24T02:56:25.892Z,0.60
2022-12-24T03:01:41.732Z,0.50
2022-12-24T03:06:51.738Z,0.50
2022-12-24T03:12:00.872Z,0.47
2022-12-24T03:17:05.843Z,0.50
2022-12-24T03:22:12.840Z,0.60
2022-12-24T03:27:17.340Z,0.60
2022-12-24T03:32:28.999Z,0.50
2022-12-24T03:37:32.207Z,0.50
2022-12-24T03:42:35.566Z,0.55
2022-12-24T03:47:40.157Z,0.52
2022-12-24T03:52:44.148Z,0.60
2022-12-24T03:57:47.498Z,0.45
2022-12-24T04:02:52.249Z,0.50
2022-12-24T04:07:55.640Z,0.50
2022-12-24T04:12:58.867Z,0.65
2022-12-24T04:18:03.513Z,0.77
2022-12-24T04:23:06.821Z,0.60
2022-12-24T04:28:10.100Z,0.60
2022-12-24T04:33:14.677Z,0.80
2022-12-24T04:38:17.888Z,1.00
2022-12-24T04:43:22.082Z,1.00
2022-12-24T04:48:26.685Z,0.87
2022-12-24T04:53:29.944Z,0.80
2022-12-24T04:58:33.146Z,0.90
2022-12-24T05:03:37.792Z,0.90
2022-12-24T05:08:41.477Z,0.90
2022-12-24T05:13:47.699Z,1.10
2022-12-24T05:18:53.030Z,1.45
2022-12-24T05:24:13.939Z,2.00
2022-12-24T05:29:17.928Z,1.10
2022-12-24T05:34:22.590Z,1.10
2022-12-24T05:39:25.887Z,1.40
2022-12-24T05:44:29.207Z,0.93
2022-12-24T05:49:33.907Z,1.30
2022-12-24T05:54:37.122Z,1.58
2022-12-24T05:59:40.471Z,1.50
2022-12-24T06:04:45.121Z,1.10
2022-12-24T06:09:48.398Z,1.38
2022-12-24T06:14:51.624Z,1.05
2022-12-24T06:19:56.245Z,1.40
2022-12-24T06:24:59.467Z,1.27
2022-12-24T06:30:02.658Z,1.13
2022-12-24T06:35:07.779Z,1.20
2022-12-24T06:40:11.696Z,2.35
2022-12-24T06:45:14.935Z,1.30
2022-12-24T06:50:19.873Z,1.92
2022-12-24T06:55:23.085Z,1.57
2022-12-24T07:00:26.373Z,1.60
2022-12-24T07:05:31.764Z,2.27
2022-12-24T07:10:35.552Z,3.17
2022-12-24T07:15:38.755Z,5.53
2022-12-24T07:20:44.240Z,3.05
2022-12-24T07:25:47.604Z,4.97
2022-12-24T07:30:50.959Z,6.68
2022-12-24T07:36:01.528Z,3.63
2022-12-24T07:41:05.065Z,2.60
2022-12-24T07:46:08.897Z,2.40
2022-12-24T07:51:13.823Z,4.20
2022-12-24T07:56:17.833Z,3.22
2022-12-24T08:01:21.232Z,3.53
2022-12-24T08:06:26.111Z,3.80
2022-12-24T08:11:29.536Z,4.43
2022-12-24T08:16:32.883Z,4.63
2022-12-24T08:21:37.512Z,5.85
2022-12-24T08:26:41.147Z,3.73
2022-12-24T08:31:44.416Z,2.63
2022-12-24T08:36:49.061Z,4.20
2022-12-24T08:41:52.440Z,7.35
2022-12-24T08:46:55.686Z,9.20
2022-12-24T08:52:00.305Z,2.00
2022-12-24T08:57:03.740Z,2.60
2022-12-24T09:02:07.166Z,1.70
2022-12-24T09:07:11.992Z,1.85
2022-12-24T09:12:15.438Z,1.92
2022-12-24T09:17:18.875Z,1.53
2022-12-24T09:22:23.501Z,3.17
2022-12-24T09:27:26.701Z,4.07
2022-12-24T09:32:29.941Z,6.05
2022-12-24T09:37:34.553Z,2.85
2022-12-24T09:42:46.192Z,1.90
2022-12-24T09:47:52.980Z,1.90
2022-12-24T09:52:59.795Z,1.50
2022-12-24T09:58:06.174Z,1.90
2022-12-24T10:03:16.106Z,1.70
2022-12-24T10:08:30.371Z,1.40
2022-12-24T10:13:48.406Z,1.40
2022-12-24T10:19:01.486Z,1.40
2022-12-24T10:24:11.923Z,1.52
2022-12-24T10:29:19.048Z,2.30
2022-12-24T10:34:24.967Z,2.10
2022-12-24T10:39:29.543Z,1.77
2022-12-24T10:44:34.564Z,2.00
2022-12-24T10:49:44.816Z,2.95
2022-12-24T10:55:11.203Z,1.42
2022-12-24T11:00:22.285Z,1.45
2022-12-24T11:05:31.043Z,1.00
2022-12-24T11:10:37.983Z,1.77
2022-12-24T11:15:41.566Z,1.40
2022-12-24T11:20:53.304Z,1.40
2022-12-24T11:25:59.405Z,1.27
2022-12-24T11:31:06.325Z,1.33
2022-12-24T11:36:14.207Z,3.50
2022-12-24T11:41:18.835Z,1.40
2022-12-24T11:46:37.721Z,1.20
2022-12-24T11:51:48.713Z,1.70
2022-12-24T11:56:56.127Z,1.92
2022-12-24T12:02:04.362Z,3.50
2022-12-24T12:07:15.467Z,1.63
2022-12-24T12:12:23.385Z,1.67
2022-12-24T12:17:33.634Z,1.60
2022-12-24T12:22:43.671Z,1.75
2022-12-24T12:27:52.697Z,1.70
2022-12-24T12:33:01.498Z,2.10
2022-12-24T12:38:07.638Z,1.35
2022-12-24T12:43:28.311Z,1.80
2022-12-24T12:48:50.173Z,0.82
2022-12-24T12:54:10.454Z,0.90
2022-12-24T12:59:21.789Z,1.90
2022-12-24T13:05:01.693Z,1.40
2022-12-24T13:10:34.019Z,2.00
2022-12-24T13:15:58.432Z,2.58
2022-12-24T13:21:02.261Z,2.08
2022-12-24T13:26:12.421Z,3.08
2022-12-24T13:31:31.662Z,4.82
2022-12-24T13:37:04.942Z,3.53
2022-12-24T13:42:08.253Z,2.47
2022-12-24T13:47:32.313Z,2.28
2022-12-24T13:52:42.273Z,1.70
2022-12-24T13:57:55.316Z,2.00
2022-12-24T14:03:05.559Z,2.08
2022-12-24T14:08:13.161Z,2.80
2022-12-24T14:14:08.359Z,1.98
2022-12-24T14:19:16.205Z,2.30
2022-12-24T14:24:23.070Z,2.20
2022-12-24T14:29:30.497Z,3.43
2022-12-24T14:34:35.103Z,2.70
2022-12-24T14:39:42.665Z,1.45
2022-12-24T14:44:54.532Z,2.33
2022-12-24T14:50:27.942Z,2.00
2022-12-24T14:55:36.705Z,3.03
2022-12-24T15:00:43.505Z,3.30
2022-12-24T15:05:53.659Z,2.42
2022-12-24T15:11:01.231Z,2.10
2022-12-24T15:16:06.744Z,1.80
2022-12-24T15:21:19.760Z,2.70
2022-12-24T15:26:26.445Z,4.22
2022-12-24T15:31:31.845Z,3.93
2022-12-24T15:36:39.935Z,2.42
2022-12-24T15:41:59.955Z,1.83
2022-12-24T15:47:08.070Z,2.57
2022-12-24T15:52:16.903Z,2.20
2022-12-24T15:57:26.344Z,2.20
2022-12-24T16:02:40.092Z,3.40
2022-12-24T16:08:10.861Z,3.57
2022-12-24T16:13:17.889Z,2.80
2022-12-24T16:18:26.478Z,2.80
2022-12-24T16:23:40.475Z,2.45
2022-12-24T16:28:43.949Z,2.80
2022-12-24T16:33:48.092Z,2.70
2022-12-24T16:39:13.583Z,3.00
2022-12-24T16:44:17.918Z,3.17
2022-12-24T16:49:25.250Z,2.20
2022-12-24T16:54:31.164Z,2.40
2022-12-24T16:59:35.978Z,2.60
2022-12-24T17:04:39.719Z,2.65
2022-12-24T17:09:44.699Z,3.13
2022-12-24T17:14:48.226Z,3.80
2022-12-24T17:19:51.888Z,3.23
2022-12-24T17:24:56.854Z,6.32
2022-12-24T17:30:00.256Z,18.90
2022-12-24T17:35:03.626Z,6.97
2022-12-24T17:40:10.433Z,5.75
2022-12-24T17:45:13.857Z,2.40
2022-12-24T17:50:17.504Z,3.10
2022-12-24T17:55:23.867Z,3.30
2022-12-24T18:00:32.724Z,4.65
2022-12-24T18:05:36.823Z,2.47
2022-12-24T18:10:41.869Z,3.03
2022-12-24T18:15:45.222Z,2.45
2022-12-24T18:20:48.572Z,2.20
2022-12-24T18:25:53.252Z,3.30
2022-12-24T18:30:59.581Z,3.50
2022-12-24T18:36:03.022Z,3.60
2022-12-24T18:41:09.748Z,2.67
2022-12-24T18:46:15.244Z,2.08
2022-12-24T18:51:19.605Z,3.43
2022-12-24T18:56:26.768Z,2.20
2022-12-24T19:01:32.538Z,2.63
2022-12-24T19:06:37.101Z,2.60
2022-12-24T19:11:42.621Z,2.22
2022-12-24T19:16:46.963Z,2.55
2022-12-24T19:21:51.011Z,4.30
2022-12-24T19:26:56.346Z,2.78
2022-12-24T19:32:00.610Z,2.30
2022-12-24T19:37:04.099Z,2.30
2022-12-24T19:42:09.453Z,2.20
2022-12-24T19:47:12.785Z,2.00
2022-12-24T19:52:17.474Z,2.70
2022-12-24T19:57:22.477Z,3.13
2022-12-24T20:02:25.816Z,4.55
2022-12-24T20:07:29.213Z,4.00
2022-12-24T20:12:34.338Z,7.13
2022-12-24T20:17:37.586Z,2.90
2022-12-24T20:22:40.841Z,2.90
2022-12-24T20:27:45.486Z,4.10
2022-12-24T20:32:48.903Z,2.17
2022-12-24T20:37:52.216Z,3.35
2022-12-24T20:42:57.010Z,2.00
2022-12-24T20:48:00.262Z,2.10
2022-12-24T20:53:03.507Z,2.08
2022-12-24T20:58:08.255Z,2.10
2022-12-24T21:03:12.816Z,1.70
2022-12-24T21:08:16.332Z,1.97
2022-12-24T21:13:21.068Z,1.75
2022-12-24T21:18:24.301Z,1.55
2022-12-24T21:23:27.575Z,1.60
2022-12-24T21:28:33.298Z,1.60
2022-12-24T21:33:38.456Z,1.90
2022-12-24T21:38:42.487Z,2.60
2022-12-24T21:43:47.663Z,4.10
2022-12-24T21:49:09.351Z,3.30
2022-12-24T21:54:27.029Z,4.93
2022-12-24T21:59:31.928Z,5.10
2022-12-24T22:04:35.367Z,8.03
2022-12-24T22:09:57.247Z,7.32
2022-12-24T22:15:02.367Z,6.80
2022-12-24T22:20:06.890Z,5.80
2022-12-24T22:25:10.682Z,3.13
2022-12-24T22:30:15.519Z,2.30
2022-12-24T22:35:18.942Z,2.40
2022-12-24T22:40:22.234Z,2.77
2022-12-24T22:45:27.581Z,2.50
2022-12-24T22:50:30.830Z,2.33
2022-12-24T22:55:34.230Z,3.07
2022-12-24T23:00:41.712Z,2.00
2022-12-24T23:05:45.177Z,4.20
2022-12-24T23:10:49.401Z,1.63
2022-12-24T23:15:54.116Z,1.70
2022-12-24T23:20:57.497Z,2.10
2022-12-24T23:26:04.569Z,2.60
2022-12-24T23:31:10.207Z,5.40
2022-12-24T23:36:14.310Z,6.97
2022-12-24T23:41:19.508Z,4.27
2022-12-24T23:46:27.274Z,3.97
2022-12-24T23:51:30.634Z,3.70
2022-12-24T23:56:33.895Z,4.10
